Overview Statistics Trail Chart Weather Telemetry Raw packets
 

This is the latest recevied weather packets stored in our database for station/object KG4GJX. If no packets are shown the sender has not sent any weather packets the latest 10 day(s).

<< 30 31 32 33 34 35 36 >>
Time Temp. Humidity Pressure Rain* Wind** Luminosity Snow
1787972207 22.22° C 100% 1018.6 hPa 0 mm - - -
1787971542 22.78° C 100% 1018.6 hPa 0 mm - - -
1787970879 22.78° C 100% 1018.2 hPa 0 mm - - -
1787970217 22.78° C 99% 1018.2 hPa 0 mm - - -
1787969554 22.78° C 98% 1018.2 hPa 0 mm - - -
1787968232 22.78° C 98% 1017.9 hPa 0 mm - - -
1787967569 23.33° C 97% 1017.6 hPa 0 mm - - -
1787966907 23.33° C 96% 1017.6 hPa 0 mm - - -
1787966244 23.89° C 96% 1017.6 hPa 0 mm - - -
1787965582 23.89° C 94% 1017.2 hPa 0 mm - - -
1787964920 23.89° C 93% 1017.6 hPa 0 mm - - -
1787964257 24.44° C 91% 1017.2 hPa 0 mm - - -
1787963594 25° C 88% 1017.2 hPa 0 mm - - -
1787962932 25.56° C 86% 1017.2 hPa 0 mm - - -
1787962269 26.11° C 82% 1017.2 hPa 0 mm - - -
1787961606 26.67° C 77% 1017.2 hPa 0 mm - - -
1787960944 27.78° C 74% 1017.2 hPa 0 mm - - -
1787960281 29.44° C 68% 1017.2 hPa 0 mm - - -
1787959619 30° C 63% 1017.2 hPa 0 mm - - -
1787958957 30.56° C 60% 1017.2 hPa 0 mm - - -
1787958294 31.11° C 57% 1017.2 hPa 0 mm - - -
1787957632 31.67° C 53% 1017.2 hPa 0 mm - - -
1787956969 32.78° C 51% 1016.9 hPa 0 mm - - -
1787956307 32.78° C 51% 1016.9 hPa 0 mm - - -
1787955644 32.78° C 51% 1017.2 hPa 0 mm - - -

* Rain latest hour (hover to see other rain measurements)
** Current wind speed in m/s (hover to see current wind gust speed)